LCRA Airport Information

Runway Information
Runway 10 Length 9002 ft width 200 ft
Elevation 71 ft Threshold ft Heading 108
Runway 28 Length 9002 ft Width 200 ft
Elevation 76 ft Threshold ft Heading 288
Airport Frequencies
Type APP Name APP Frequency 122.1 MHZ
Type ATIS Name ATIS Frequency 28.82 MHZ
Type DIR Name DIRECTOR Frequency 122.1 MHZ
Type GND Name GND Frequency 26.1 MHZ
Type OPS Name OPS Frequency 23.405 MHZ
Type TWR Name TWR Frequency 122.1 MHZ
Airport Navaids
Type TACAN Name Akrotiri Frequency 116000 KHZ
Airport Weather Information & NOTAM
ADDS - METARS form results

(0028 UTC 29 June 2022)
Data provider http://aviationweather.gov/metar/data/
 
METAR text: LCRA 290020Z 34001KT CAVOK 23/18 Q1006 NOSIG
Conditions at: LCRA (AKROTIRI (RAF) , CY) observed 0020 UTC 29 June 2022
Temperature: 23.0°C (73°F)
Dewpoint: 18.0°C (64°F) [RH = 73%]
Pressure (altimeter): 29.70 inches Hg (1006.0 mb)
Winds: from the NNW (340 degrees) at 1 MPH (1 knots; 0.5 m/s)
Visibility: 6 or more miles (10+ km)
Ceiling: ceiling and visibility are OK
Clouds: unknown
Weather: no significant weather observed at this time

METAR text: LCRA 282350Z 30002KT CAVOK 23/18 Q1005 NOSIG
Conditions at: LCRA (AKROTIRI (RAF) , CY) observed 2350 UTC 28 June 2022
Temperature: 23.0°C (73°F)
Dewpoint: 18.0°C (64°F) [RH = 73%]
Pressure (altimeter): 29.68 inches Hg (1005.0 mb)
Winds: from the WNW (300 degrees) at 2 MPH (2 knots; 1.0 m/s)
Visibility: 6 or more miles (10+ km)
Ceiling: ceiling and visibility are OK
Clouds: unknown
Weather: no significant weather observed at this time

Forecast for: LCRA (AKROTIRI (RAF) , CY)
Text: TAF LCRA 282201Z 2900/2918 28006KT CAVOK
Forecast period: 0000 to 1800 UTC 29 June 2022
Forecast type: FROM: standard forecast or significant change
Winds: from the W (280 degrees) at 7 MPH (6 knots; 3.1 m/s)
Visibility: 6 or more miles (10+ km)
Ceiling: unknown
Clouds: missing
Weather: NSW  (no significant weather)
Text: PROB40 2901/2907 05004KT
Forecast period: 0100 to 0700 UTC 29 June 2022
Forecast type: PROBABLE: 40 percent likelihood of the following during this time
Winds: from the NE (50 degrees) at 5 MPH (4 knots; 2.1 m/s)
Visibility: missing
Ceiling: unknown
Clouds: missing
Weather: no significant weather forecast for this period